Time;durP1;ratioP1;P1;durP2;ratioP2;P2;SDS_P1;SDS_P2;PMS_P1;PMS_P2;Temp;Humidity;BMP_temperature;BMP_pressure;BME280_temperature;BME280_humidity;BME280_pressure;Samples;Min_cycle;Max_cycle;Signal;HPM_P1;HPM_P2
2023/06/19 00:00:16;;;;;;;2.40;2.40;;;24.10;65.10;;;;;;5066732;28;43435;-76
2023/06/19 00:02:46;;;;;;;2.20;2.20;;;24.00;65.40;;;;;;5067068;28;43415;-76
2023/06/19 00:05:14;;;;;;;2.20;2.20;;;24.00;65.30;;;;;;5064616;28;45602;-76
2023/06/19 00:07:42;;;;;;;2.13;2.13;;;23.90;65.30;;;;;;5065906;28;44905;-76
2023/06/19 00:10:10;;;;;;;2.00;2.00;;;23.90;65.80;;;;;;5065939;28;43455;-77
2023/06/19 00:12:38;;;;;;;2.17;2.17;;;23.90;66.00;;;;;;5066090;28;43363;-76
2023/06/19 00:15:09;;;;;;;2.23;2.23;;;23.80;65.80;;;;;;5064793;28;45835;-76
2023/06/19 00:17:38;;;;;;;2.10;2.10;;;23.80;65.80;;;;;;5069506;28;43527;-75
2023/06/19 00:20:07;;;;;;;2.20;2.20;;;23.80;66.10;;;;;;5069934;28;43479;-76
2023/06/19 00:22:35;;;;;;;1.90;1.90;;;23.70;66.30;;;;;;5070207;28;43859;-76
2023/06/19 00:25:04;;;;;;;2.20;2.20;;;23.80;66.20;;;;;;5065175;28;43889;-75
2023/06/19 00:27:32;;;;;;;2.00;2.00;;;23.90;66.00;;;;;;5069384;28;43412;-76
2023/06/19 00:30:02;;;;;;;2.10;2.10;;;24.00;65.60;;;;;;5069550;28;43375;-76
2023/06/19 00:32:30;;;;;;;2.00;2.00;;;24.00;65.20;;;;;;5069923;28;43483;-77
2023/06/19 00:35:02;;;;;;;2.00;2.00;;;24.00;65.10;;;;;;5068407;28;43823;-76
2023/06/19 00:37:32;;;;;;;1.93;1.93;;;24.00;65.30;;;;;;5069193;28;43433;-76
2023/06/19 00:40:00;;;;;;;2.20;2.20;;;23.90;65.60;;;;;;5069158;28;43481;-75
2023/06/19 00:42:28;;;;;;;2.10;2.10;;;23.90;65.90;;;;;;5069414;28;43890;-75
2023/06/19 00:44:56;;;;;;;2.00;2.00;;;23.90;65.90;;;;;;5067381;28;45695;-76
2023/06/19 00:47:25;;;;;;;2.00;2.00;;;23.80;65.90;;;;;;5067712;28;44560;-76
2023/06/19 00:49:53;;;;;;;1.90;1.90;;;23.80;66.30;;;;;;5067430;28;43481;-76
2023/06/19 00:52:22;;;;;;;2.10;2.10;;;23.70;66.40;;;;;;5068110;28;43657;-76
2023/06/19 00:54:50;;;;;;;1.90;1.90;;;23.80;66.20;;;;;;5068805;28;43607;-76
2023/06/19 00:57:18;;;;;;;1.97;1.97;;;23.90;65.90;;;;;;5069060;28;43726;-76
2023/06/19 00:59:47;;;;;;;2.03;2.03;;;24.00;65.50;;;;;;5064269;28;43443;-75
2023/06/19 01:02:15;;;;;;;1.87;1.87;;;24.00;65.20;;;;;;5070399;28;43380;-77
2023/06/19 01:04:43;;;;;;;2.03;2.03;;;24.00;65.20;;;;;;5056189;28;45703;-77
2023/06/19 01:07:13;;;;;;;2.03;2.03;;;24.00;65.30;;;;;;5066828;28;45875;-77
2023/06/19 01:09:45;;;;;;;2.20;2.20;;;23.90;65.80;;;;;;5069181;28;43501;-76
2023/06/19 01:12:16;;;;;;;2.07;2.07;;;23.90;66.00;;;;;;5062836;28;43449;-79
2023/06/19 01:14:47;;;;;;;2.00;2.00;;;23.80;65.90;;;;;;5062398;28;43746;-75
2023/06/19 01:17:15;;;;;;;1.97;1.97;;;23.80;66.00;;;;;;5068943;28;44381;-75
2023/06/19 01:19:43;;;;;;;2.00;2.00;;;23.70;66.30;;;;;;5067241;28;43545;-75
2023/06/19 01:22:18;;;;;;;2.07;1.90;;;23.70;66.50;;;;;;5069065;28;43533;-76
2023/06/19 01:24:46;;;;;;;2.13;2.13;;;23.70;66.40;;;;;;5066573;28;44918;-76
2023/06/19 01:27:14;;;;;;;2.27;2.27;;;23.80;66.20;;;;;;5067072;28;43568;-75
2023/06/19 01:29:41;;;;;;;1.97;1.97;;;23.80;66.00;;;;;;5067143;28;43311;-75
2023/06/19 01:32:11;;;;;;;2.10;2.10;;;23.80;65.90;;;;;;5067071;28;43469;-75
2023/06/19 01:34:39;;;;;;;1.90;1.90;;;23.80;66.30;;;;;;5068373;28;43771;-77
2023/06/19 01:37:08;;;;;;;2.00;2.00;;;23.70;66.30;;;;;;5066952;28;44920;-76
2023/06/19 01:39:38;;;;;;;1.90;1.90;;;23.80;66.20;;;;;;5068222;28;43454;-76
2023/06/19 01:42:09;;;;;;;2.00;2.00;;;23.80;66.20;;;;;;5067193;28;43391;-77
2023/06/19 01:44:37;;;;;;;2.10;2.10;;;23.70;66.50;;;;;;5067921;28;43607;-76
2023/06/19 01:47:09;;;;;;;2.00;2.00;;;23.70;66.60;;;;;;5068161;28;43462;-76
2023/06/19 01:49:37;;;;;;;2.10;2.10;;;23.70;66.40;;;;;;5066887;28;43526;-76
2023/06/19 01:52:06;;;;;;;2.03;2.03;;;23.80;66.00;;;;;;5066626;28;43910;-76
2023/06/19 01:54:34;;;;;;;2.10;2.10;;;23.90;65.90;;;;;;5068045;28;43740;-75
2023/06/19 01:57:04;;;;;;;2.10;2.10;;;23.90;65.80;;;;;;5066524;28;44933;-75
2023/06/19 01:59:32;;;;;;;1.93;1.93;;;23.90;66.00;;;;;;5066871;28;43732;-76
2023/06/19 02:02:00;;;;;;;2.03;2.03;;;23.90;66.20;;;;;;5068334;28;43712;-75
2023/06/19 02:04:29;;;;;;;1.90;1.90;;;23.80;66.10;;;;;;5067479;28;43618;-75
2023/06/19 02:06:57;;;;;;;1.97;1.97;;;23.80;66.00;;;;;;5066334;28;44892;-76
2023/06/19 02:09:25;;;;;;;1.97;1.97;;;23.80;66.10;;;;;;5066846;28;43431;-76
2023/06/19 02:11:54;;;;;;;1.90;1.90;;;23.70;66.50;;;;;;5064014;28;43585;-76
2023/06/19 02:14:24;;;;;;;2.00;2.00;;;23.70;66.50;;;;;;5066204;28;45578;-76
2023/06/19 02:16:52;;;;;;;1.97;1.97;;;23.70;66.40;;;;;;5066067;28;44461;-75
2023/06/19 02:19:20;;;;;;;2.17;2.17;;;23.70;66.60;;;;;;5066387;28;43433;-76
2023/06/19 02:21:49;;;;;;;1.80;1.80;;;23.60;66.80;;;;;;5066481;28;43581;-76
2023/06/19 02:24:17;;;;;;;1.90;1.90;;;23.60;66.70;;;;;;5065824;28;45750;-74
2023/06/19 02:26:45;;;;;;;1.97;1.97;;;23.70;66.40;;;;;;5067092;28;43889;-76
2023/06/19 02:29:14;;;;;;;1.80;1.80;;;23.80;66.10;;;;;;5067423;28;43414;-76
2023/06/19 02:31:43;;;;;;;2.10;2.10;;;23.90;65.90;;;;;;5068155;28;43407;-76
2023/06/19 02:34:11;;;;;;;2.00;2.00;;;23.90;65.60;;;;;;5066876;28;44009;-76
2023/06/19 02:36:39;;;;;;;1.80;1.80;;;23.90;65.60;;;;;;5067236;28;44384;-76
2023/06/19 02:39:09;;;;;;;1.80;1.80;;;23.90;65.80;;;;;;5065745;28;43407;-76
2023/06/19 02:41:38;;;;;;;1.90;1.90;;;23.80;66.10;;;;;;5067258;28;43550;-76
2023/06/19 02:44:06;;;;;;;1.60;1.60;;;23.80;66.10;;;;;;5066607;28;43846;-75
2023/06/19 02:46:36;;;;;;;1.80;1.80;;;23.80;66.20;;;;;;5065334;28;44834;-76
2023/06/19 02:49:06;;;;;;;1.90;1.90;;;23.70;66.40;;;;;;5067102;28;43772;-76
2023/06/19 02:51:33;;;;;;;1.83;1.83;;;23.70;66.60;;;;;;5065487;28;44059;-76
2023/06/19 02:54:01;;;;;;;1.90;1.90;;;23.70;66.60;;;;;;5066638;28;43709;-76
2023/06/19 02:56:29;;;;;;;1.80;1.80;;;23.70;66.40;;;;;;5065477;28;45130;-76
2023/06/19 02:58:57;;;;;;;2.00;2.00;;;23.60;66.70;;;;;;5098119;27;43527;-76
2023/06/19 03:01:25;;;;;;;1.80;1.80;;;23.60;66.90;;;;;;5067237;28;43432;-76
2023/06/19 03:03:53;;;;;;;2.30;2.30;;;23.60;66.90;;;;;;5064696;28;45619;-76
2023/06/19 03:06:23;;;;;;;1.80;1.80;;;23.60;66.70;;;;;;5066660;28;43351;-75
2023/06/19 03:08:51;;;;;;;1.90;1.90;;;23.60;66.80;;;;;;5065299;28;43480;-76
2023/06/19 03:11:19;;;;;;;1.93;1.93;;;23.60;67.10;;;;;;5067124;28;43388;-76
2023/06/19 03:13:49;;;;;;;1.50;1.50;;;23.50;66.90;;;;;;5065071;28;44907;-76
2023/06/19 03:16:18;;;;;;;1.83;1.83;;;23.60;66.80;;;;;;5064992;28;43488;-76
2023/06/19 03:18:47;;;;;;;1.90;1.90;;;23.70;66.40;;;;;;5065137;28;43445;-76
2023/06/19 03:21:21;;;;;;;1.80;1.80;;;23.90;66.20;;;;;;5065445;28;43557;-75
2023/06/19 03:23:52;;;;;;;1.87;1.87;;;23.90;65.90;;;;;;5061053;28;46088;-76
2023/06/19 03:26:24;;;;;;;1.80;1.80;;;23.90;65.80;;;;;;5064395;28;43809;-74
2023/06/19 03:28:53;;;;;;;1.87;1.87;;;23.90;65.80;;;;;;5064969;28;43768;-75
2023/06/19 03:31:22;;;;;;;1.73;1.73;;;23.80;66.60;;;;;;5065092;28;44215;-75
2023/06/19 03:33:51;;;;;;;1.80;1.80;;;23.80;66.40;;;;;;5063618;28;44036;-72
2023/06/19 03:36:20;;;;;;;1.90;1.90;;;23.70;66.20;;;;;;5064507;28;43942;-75
2023/06/19 03:38:52;;;;;;;1.87;1.87;;;23.70;66.40;;;;;;5065181;28;43386;-75
2023/06/19 03:41:22;;;;;;;2.00;2.00;;;23.70;66.80;;;;;;5064962;28;43648;-75
2023/06/19 03:43:50;;;;;;;1.77;1.77;;;23.60;66.80;;;;;;5064160;28;45604;-76
2023/06/19 03:46:19;;;;;;;1.67;1.67;;;23.60;66.50;;;;;;5064805;28;44558;-75
2023/06/19 03:48:47;;;;;;;1.90;1.90;;;23.60;66.60;;;;;;5067940;28;43403;-76
2023/06/19 03:51:15;;;;;;;1.83;1.83;;;23.60;66.90;;;;;;5066322;28;43473;-75
2023/06/19 03:53:44;;;;;;;1.90;1.90;;;23.60;67.00;;;;;;5066254;28;43955;-76
2023/06/19 03:56:13;;;;;;;1.90;1.90;;;23.60;66.90;;;;;;5066362;28;43517;-75
2023/06/19 03:58:43;;;;;;;1.80;1.80;;;23.70;66.60;;;;;;5064867;28;43410;-74
2023/06/19 04:01:13;;;;;;;1.60;1.60;;;23.80;66.30;;;;;;5065119;28;43532;-75
2023/06/19 04:03:41;;;;;;;1.97;1.97;;;23.90;65.80;;;;;;5065724;28;43863;-75
2023/06/19 04:06:09;;;;;;;1.80;1.80;;;23.90;65.60;;;;;;5064421;28;44796;-76
2023/06/19 04:08:40;;;;;;;1.80;1.80;;;23.90;65.60;;;;;;5064580;28;43439;-75
2023/06/19 04:11:13;;;;;;;1.97;1.97;;;23.90;65.90;;;;;;5065027;28;43592;-76
2023/06/19 04:13:42;;;;;;;1.80;1.80;;;23.80;66.30;;;;;;5064459;28;45725;-76
2023/06/19 04:16:09;;;;;;;1.70;1.70;;;23.80;66.20;;;;;;5064459;28;44750;-75
2023/06/19 04:18:37;;;;;;;1.90;1.90;;;23.80;66.20;;;;;;5064365;28;43371;-77
2023/06/19 04:21:06;;;;;;;1.80;1.80;;;23.70;66.50;;;;;;5058329;28;43581;-74
2023/06/19 04:23:33;;;;;;;1.60;1.60;;;23.70;66.70;;;;;;5064054;28;45559;-75
2023/06/19 04:26:01;;;;;;;1.90;1.90;;;23.60;66.60;;;;;;5065394;28;43372;-77
2023/06/19 04:28:31;;;;;;;1.80;1.80;;;23.60;66.50;;;;;;5064408;28;43477;-76
2023/06/19 04:31:01;;;;;;;1.87;1.87;;;23.60;66.80;;;;;;5064796;28;43447;-76
2023/06/19 04:33:29;;;;;;;1.77;1.77;;;23.50;67.00;;;;;;5066020;28;43610;-76
2023/06/19 04:35:58;;;;;;;1.80;1.80;;;23.60;67.00;;;;;;5063963;28;44598;-76
2023/06/19 04:38:26;;;;;;;1.70;1.70;;;23.60;66.90;;;;;;5065825;28;43558;-76
2023/06/19 04:40:54;;;;;;;1.80;1.80;;;23.50;66.90;;;;;;5066042;28;43562;-76
2023/06/19 04:43:24;;;;;;;1.70;1.70;;;23.50;67.10;;;;;;5065059;28;43625;-79
2023/06/19 04:45:53;;;;;;;1.60;1.60;;;23.50;67.10;;;;;;5065125;28;43468;-77
2023/06/19 04:48:24;;;;;;;1.83;1.83;;;23.60;67.70;;;;;;5065345;28;43517;-76
2023/06/19 04:50:52;;;;;;;1.93;1.93;;;23.70;66.60;;;;;;5065788;28;43425;-75
2023/06/19 04:53:20;;;;;;;1.70;1.70;;;23.90;66.20;;;;;;5062515;28;43777;-76
2023/06/19 04:55:49;;;;;;;1.93;1.93;;;23.90;65.90;;;;;;5064631;28;43510;-76
2023/06/19 04:58:17;;;;;;;1.90;1.90;;;23.90;65.70;;;;;;5065423;28;43390;-73
2023/06/19 05:00:49;;;;;;;1.80;1.70;;;23.90;65.70;;;;;;5065616;28;43526;-76
2023/06/19 05:03:19;;;;;;;1.70;1.70;;;23.90;66.20;;;;;;5066302;28;43968;-75
2023/06/19 05:05:47;;;;;;;1.80;1.80;;;23.80;66.40;;;;;;5067280;28;43377;-75
2023/06/19 05:08:15;;;;;;;1.90;1.90;;;23.80;66.40;;;;;;5069311;28;43476;-75
2023/06/19 05:10:43;;;;;;;1.97;1.97;;;23.70;66.30;;;;;;5069572;28;43828;-75
2023/06/19 05:13:13;;;;;;;1.80;1.80;;;23.70;66.70;;;;;;5067966;28;45991;-75
2023/06/19 05:15:41;;;;;;;1.90;1.90;;;23.60;66.80;;;;;;5069085;28;43494;-76
2023/06/19 05:18:09;;;;;;;1.90;1.90;;;23.70;66.80;;;;;;5067265;28;43612;-77
2023/06/19 05:20:38;;;;;;;1.50;1.50;;;23.80;66.50;;;;;;5069069;28;43502;-75
2023/06/19 05:23:06;;;;;;;1.67;1.67;;;23.90;66.20;;;;;;5068466;28;43619;-77
2023/06/19 05:25:34;;;;;;;1.70;1.70;;;23.90;65.90;;;;;;5066826;28;44827;-75
2023/06/19 05:28:02;;;;;;;1.80;1.80;;;23.90;65.80;;;;;;5067420;28;43550;-75
2023/06/19 05:30:34;;;;;;;1.87;1.87;;;23.90;65.90;;;;;;5067624;28;43376;-75
2023/06/19 05:33:02;;;;;;;1.60;1.60;;;23.80;66.30;;;;;;5067512;28;44920;-76
2023/06/19 05:35:31;;;;;;;1.70;1.70;;;23.80;66.60;;;;;;5066945;28;45030;-75
2023/06/19 05:38:01;;;;;;;1.70;1.70;;;23.70;66.50;;;;;;5068569;28;43882;-75
2023/06/19 05:40:29;;;;;;;1.90;1.83;;;23.70;66.50;;;;;;5068670;28;43570;-75
2023/06/19 05:42:57;;;;;;;1.67;1.67;;;23.70;66.70;;;;;;5068242;28;43867;-75
2023/06/19 05:45:25;;;;;;;2.00;1.90;;;23.60;67.00;;;;;;5068459;28;43402;-75
2023/06/19 05:47:53;;;;;;;1.73;1.73;;;23.60;66.90;;;;;;5068536;28;43343;-75
2023/06/19 05:50:21;;;;;;;1.50;1.50;;;23.60;66.70;;;;;;5066755;28;43525;-78
2023/06/19 05:52:49;;;;;;;1.90;1.90;;;23.60;66.90;;;;;;5068027;28;43922;-76
2023/06/19 05:55:19;;;;;;;1.60;1.60;;;23.60;67.20;;;;;;5066960;28;44955;-74
2023/06/19 05:57:47;;;;;;;1.70;1.70;;;23.60;67.20;;;;;;5069111;28;43346;-76
2023/06/19 06:00:16;;;;;;;1.73;1.73;;;23.60;67.00;;;;;;5067332;28;43415;-76
2023/06/19 06:02:44;;;;;;;1.70;1.70;;;23.80;66.70;;;;;;5068466;28;43699;-75
2023/06/19 06:05:12;;;;;;;1.80;1.80;;;23.80;66.30;;;;;;5067877;28;43402;-76
2023/06/19 06:07:40;;;;;;;1.67;1.67;;;23.80;66.10;;;;;;5066640;28;43430;-75
2023/06/19 06:10:09;;;;;;;1.70;1.70;;;23.80;66.10;;;;;;5068191;28;44038;-76
2023/06/19 06:12:38;;;;;;;1.77;1.77;;;23.80;66.30;;;;;;5067573;28;44880;-76
2023/06/19 06:15:07;;;;;;;1.93;1.83;;;23.70;66.70;;;;;;5068115;28;43381;-76
2023/06/19 06:17:35;;;;;;;1.90;1.90;;;23.70;66.70;;;;;;5067923;28;43421;-76
2023/06/19 06:20:09;;;;;;;1.70;1.60;;;23.70;66.60;;;;;;5100397;27;43532;-76
2023/06/19 06:22:37;;;;;;;1.80;1.80;;;23.60;66.80;;;;;;5067815;28;43828;-76
2023/06/19 06:25:05;;;;;;;1.63;1.63;;;23.60;67.20;;;;;;5067703;28;43404;-76
2023/06/19 06:27:33;;;;;;;1.80;1.80;;;23.60;67.10;;;;;;5067739;28;43427;-76
2023/06/19 06:30:03;;;;;;;1.53;1.53;;;23.60;66.90;;;;;;5068392;28;44056;-76
2023/06/19 06:32:31;;;;;;;1.70;1.70;;;23.60;67.10;;;;;;5065850;28;45959;-76
2023/06/19 06:34:59;;;;;;;1.60;1.60;;;23.60;67.30;;;;;;5067572;28;43403;-75
2023/06/19 06:37:27;;;;;;;1.90;1.90;;;23.60;67.40;;;;;;5066219;28;43526;-75
2023/06/19 06:39:55;;;;;;;1.53;1.53;;;23.60;67.10;;;;;;5067835;28;43954;-76
2023/06/19 06:42:23;;;;;;;1.70;1.70;;;23.70;66.70;;;;;;5067090;28;44016;-76
2023/06/19 06:44:51;;;;;;;1.90;1.90;;;23.90;66.40;;;;;;5067485;28;43448;-76
2023/06/19 06:47:20;;;;;;;1.73;1.73;;;23.90;66.20;;;;;;5067466;28;43383;-75
2023/06/19 06:49:48;;;;;;;1.70;1.70;;;23.90;66.00;;;;;;5066114;28;43470;-75
2023/06/19 06:52:17;;;;;;;1.63;1.63;;;23.90;66.10;;;;;;5066363;28;45635;-76
2023/06/19 06:54:45;;;;;;;1.60;1.60;;;23.70;66.50;;;;;;5065511;28;44428;-78
2023/06/19 06:57:13;;;;;;;1.70;1.70;;;23.70;66.70;;;;;;5067195;28;43430;-75
2023/06/19 06:59:42;;;;;;;1.83;1.80;;;23.70;66.70;;;;;;5067811;28;43406;-76
2023/06/19 07:02:10;;;;;;;1.67;1.67;;;23.70;66.50;;;;;;5065619;28;45934;-76
2023/06/19 07:04:39;;;;;;;1.73;1.70;;;23.60;66.90;;;;;;5065374;28;45097;-77
2023/06/19 07:07:08;;;;;;;2.13;1.60;;;23.60;67.10;;;;;;5067125;28;44533;-77
2023/06/19 07:09:36;;;;;;;3.93;1.83;;;23.60;67.00;;;;;;5065039;28;43836;-76
2023/06/19 07:12:06;;;;;;;2.07;2.00;;;23.60;67.00;;;;;;5066849;28;43832;-76
2023/06/19 07:14:34;;;;;;;2.40;1.97;;;23.60;67.00;;;;;;5066826;28;43388;-75
2023/06/19 07:17:02;;;;;;;2.90;2.67;;;23.60;67.40;;;;;;5064918;28;43451;-76
2023/06/19 07:19:30;;;;;;;3.80;2.10;;;23.60;67.20;;;;;;5065966;28;43526;-75
2023/06/19 07:22:00;;;;;;;3.40;2.00;;;23.70;66.80;;;;;;5067271;28;43595;-76
2023/06/19 07:24:28;;;;;;;17.67;2.23;;;23.80;66.40;;;;;;5064690;28;44547;-75
2023/06/19 07:26:56;;;;;;;1.90;1.80;;;23.90;66.30;;;;;;5066557;28;43583;-76
2023/06/19 07:29:25;;;;;;;1.67;1.60;;;23.90;66.10;;;;;;5067234;28;43448;-76
2023/06/19 07:31:53;;;;;;;8.17;2.07;;;23.90;66.10;;;;;;5065160;28;45348;-76
2023/06/19 07:34:21;;;;;;;1.70;1.60;;;23.80;66.40;;;;;;5066763;28;43507;-75
2023/06/19 07:36:49;;;;;;;1.80;1.70;;;23.70;66.80;;;;;;5065176;28;43389;-75
2023/06/19 07:39:19;;;;;;;1.90;1.80;;;23.70;66.70;;;;;;5065801;28;43945;-74
2023/06/19 07:41:47;;;;;;;1.73;1.73;;;23.70;66.60;;;;;;5065294;28;45415;-75
2023/06/19 07:44:17;;;;;;;1.70;1.60;;;23.60;66.50;;;;;;5064991;28;44734;-76
2023/06/19 07:46:45;;;;;;;2.07;1.90;;;23.60;67.20;;;;;;5066633;28;43369;-76
2023/06/19 07:49:13;;;;;;;1.80;1.60;;;23.60;67.20;;;;;;5067397;28;43353;-76
2023/06/19 07:51:41;;;;;;;1.60;1.60;;;23.60;67.00;;;;;;5066318;28;43743;-76
2023/06/19 07:54:09;;;;;;;1.50;1.50;;;23.50;66.70;;;;;;5065196;28;44712;-75
2023/06/19 07:56:39;;;;;;;2.13;2.03;;;23.50;67.30;;;;;;5065959;28;43432;-75
2023/06/19 07:59:07;;;;;;;1.70;1.70;;;23.60;67.50;;;;;;5065515;28;43507;-78
2023/06/19 08:01:35;;;;;;;1.63;1.63;;;23.60;67.20;;;;;;5064610;28;45963;-75
2023/06/19 08:04:03;;;;;;;1.80;1.70;;;23.70;66.80;;;;;;5064413;28;44452;-75
2023/06/19 08:06:31;;;;;;;3.40;1.70;;;23.80;66.40;;;;;;5066335;28;43399;-75
2023/06/19 08:08:59;;;;;;;1.73;1.63;;;23.90;66.20;;;;;;5065097;28;43414;-75
2023/06/19 08:11:27;;;;;;;1.87;1.77;;;23.90;65.90;;;;;;5064358;28;45701;-76
2023/06/19 08:13:56;;;;;;;1.77;1.77;;;23.90;66.00;;;;;;5066078;28;43433;-76
2023/06/19 08:16:25;;;;;;;1.90;1.80;;;23.80;66.60;;;;;;5065517;28;43395;-75
2023/06/19 08:18:53;;;;;;;2.07;1.80;;;23.70;66.60;;;;;;5062935;28;43462;-75
2023/06/19 08:21:21;;;;;;;1.60;1.50;;;23.70;66.50;;;;;;5062440;28;43580;-76
2023/06/19 08:23:49;;;;;;;1.97;1.97;;;23.70;66.40;;;;;;5063722;28;43470;-75
2023/06/19 08:26:18;;;;;;;2.03;1.93;;;23.60;66.90;;;;;;5064417;28;44031;-73
2023/06/19 08:28:46;;;;;;;1.93;1.83;;;23.60;67.10;;;;;;5062085;28;43618;-76
2023/06/19 08:31:16;;;;;;;1.83;1.73;;;23.60;67.00;;;;;;5065266;28;43607;-76
2023/06/19 08:33:44;;;;;;;1.70;1.70;;;23.60;66.80;;;;;;5059975;28;43404;-75
2023/06/19 08:36:13;;;;;;;1.80;1.80;;;23.50;67.00;;;;;;5065346;28;43419;-76
2023/06/19 08:38:41;;;;;;;1.83;1.73;;;23.50;67.40;;;;;;5069834;28;43439;-75
2023/06/19 08:41:09;;;;;;;1.80;1.80;;;23.50;67.30;;;;;;5069300;28;43889;-75
2023/06/19 08:43:37;;;;;;;1.97;1.80;;;23.50;67.10;;;;;;5067692;28;43438;-75
2023/06/19 08:46:11;;;;;;;1.60;1.60;;;23.50;66.90;;;;;;5067993;28;43399;-75
2023/06/19 08:48:41;;;;;;;1.40;1.40;;;23.50;67.60;;;;;;5070091;28;43444;-76
2023/06/19 08:51:09;;;;;;;1.60;1.50;;;23.50;67.40;;;;;;5069334;28;44011;-75
2023/06/19 08:53:37;;;;;;;1.70;1.57;;;23.60;67.10;;;;;;5069235;28;43530;-75
2023/06/19 08:56:07;;;;;;;1.47;1.47;;;23.70;66.70;;;;;;5069237;28;43450;-75
2023/06/19 08:58:35;;;;;;;1.77;1.67;;;23.90;66.40;;;;;;5069675;28;43902;-73
2023/06/19 09:01:03;;;;;;;2.40;2.20;;;23.90;66.20;;;;;;5067280;28;44678;-76
2023/06/19 09:03:31;;;;;;;3.07;2.30;;;23.90;66.00;;;;;;5069022;28;43537;-78
2023/06/19 09:06:03;;;;;;;2.50;2.40;;;23.80;66.10;;;;;;5068556;28;43426;-74
2023/06/19 09:08:32;;;;;;;2.60;2.30;;;23.80;66.70;;;;;;5101669;27;43934;-74
2023/06/19 09:11:01;;;;;;;3.27;2.50;;;23.70;66.60;;;;;;5067672;28;45965;-76
2023/06/19 09:13:30;;;;;;;2.30;2.20;;;23.70;66.60;;;;;;5068892;28;44053;-75
2023/06/19 09:16:01;;;;;;;2.83;2.70;;;23.70;66.50;;;;;;5067992;28;43465;-75
2023/06/19 09:18:30;;;;;;;6.90;3.13;;;23.60;67.20;;;;;;5069333;28;43933;-75
2023/06/19 09:20:58;;;;;;;3.10;2.50;;;23.60;67.10;;;;;;5068684;28;43836;-75
2023/06/19 09:23:28;;;;;;;3.90;2.73;;;23.50;66.90;;;;;;5068804;28;43363;-75
2023/06/19 09:26:02;;;;;;;3.93;3.03;;;23.50;66.80;;;;;;5067114;28;44205;-76
2023/06/19 09:28:34;;;;;;;3.00;2.80;;;23.50;67.30;;;;;;5067645;28;43467;-77
2023/06/19 09:31:02;;;;;;;3.50;3.13;;;23.50;67.60;;;;;;5068612;28;43649;-76
2023/06/19 09:33:31;;;;;;;3.67;3.03;;;23.60;67.40;;;;;;5067368;28;45022;-76
2023/06/19 09:36:01;;;;;;;2.60;2.50;;;23.70;67.00;;;;;;5067500;28;43381;-76
2023/06/19 09:38:31;;;;;;;3.57;2.80;;;23.80;66.60;;;;;;5069002;28;43328;-76
2023/06/19 09:41:00;;;;;;;4.07;2.97;;;23.80;66.40;;;;;;5068175;28;43643;-76
2023/06/19 09:43:33;;;;;;;3.30;3.00;;;23.80;66.30;;;;;;5068114;28;43500;-75
2023/06/19 09:46:01;;;;;;;3.30;3.10;;;23.70;66.90;;;;;;5068617;28;43355;-75
2023/06/19 09:48:30;;;;;;;4.37;3.20;;;23.70;66.90;;;;;;5094722;27;43525;-76
2023/06/19 09:51:02;;;;;;;4.87;3.20;;;23.60;67.00;;;;;;5067440;28;43703;-76
2023/06/19 09:53:31;;;;;;;3.60;3.30;;;23.60;66.90;;;;;;5068316;28;43421;-76
2023/06/19 09:55:59;;;;;;;2.70;2.57;;;23.60;66.70;;;;;;5068588;28;43443;-76
2023/06/19 09:58:27;;;;;;;3.10;2.80;;;23.50;67.20;;;;;;5068366;28;43884;-75
2023/06/19 10:00:56;;;;;;;4.93;2.90;;;23.50;67.50;;;;;;5067878;28;44001;-76
2023/06/19 10:03:31;;;;;;;3.93;3.00;;;23.50;67.50;;;;;;5067651;28;43380;-76
2023/06/19 10:06:00;;;;;;;3.40;3.10;;;23.50;67.30;;;;;;5066615;28;43386;-76
2023/06/19 10:08:31;;;;;;;2.80;2.53;;;23.50;67.30;;;;;;5068471;28;43429;-75
2023/06/19 10:10:59;;;;;;;3.10;2.90;;;23.50;67.80;;;;;;5066513;28;45741;-76
2023/06/19 10:13:34;;;;;;;3.07;2.70;;;23.50;67.70;;;;;;5065744;28;44440;-76
2023/06/19 10:16:02;;;;;;;5.60;3.10;;;23.60;67.30;;;;;;5068322;28;43280;-76
2023/06/19 10:18:30;;;;;;;4.67;3.23;;;23.70;66.90;;;;;;5068011;28;43378;-76
2023/06/19 10:20:58;;;;;;;4.47;3.03;;;23.80;66.70;;;;;;5067664;28;43619;-76
2023/06/19 10:23:28;;;;;;;3.83;2.83;;;23.80;66.60;;;;;;5067488;28;44068;-76
2023/06/19 10:25:58;;;;;;;6.63;2.80;;;23.70;66.50;;;;;;5067556;28;43375;-77
2023/06/19 10:28:31;;;;;;;4.50;2.80;;;23.70;66.80;;;;;;5064857;28;43928;-76
2023/06/19 10:31:01;;;;;;;2.87;2.60;;;23.60;67.10;;;;;;5066612;28;43655;-75
2023/06/19 10:33:32;;;;;;;3.30;3.00;;;23.60;67.10;;;;;;5067464;28;43960;-76
2023/06/19 10:36:00;;;;;;;3.47;2.87;;;23.60;66.80;;;;;;5067632;28;43403;-75
2023/06/19 10:38:28;;;;;;;3.60;3.17;;;23.50;66.80;;;;;;5066146;28;43589;-75
2023/06/19 10:40:58;;;;;;;3.40;3.07;;;23.50;67.50;;;;;;5067615;28;43873;-75
2023/06/19 10:43:30;;;;;;;5.43;2.87;;;23.50;67.60;;;;;;5066818;28;43353;-75
2023/06/19 10:45:58;;;;;;;2.73;2.60;;;23.50;67.30;;;;;;5066098;28;43437;-74
2023/06/19 10:48:26;;;;;;;3.27;2.90;;;23.40;67.00;;;;;;5067490;28;43463;-75
2023/06/19 10:50:57;;;;;;;3.03;2.80;;;23.40;67.80;;;;;;5067269;28;43948;-75
2023/06/19 10:53:26;;;;;;;2.80;2.70;;;23.40;67.80;;;;;;5058958;28;44737;-75
2023/06/19 10:55:59;;;;;;;2.70;2.60;;;23.40;67.60;;;;;;5060786;28;43317;-75
2023/06/19 10:58:27;;;;;;;4.50;2.93;;;23.40;67.40;;;;;;5068021;28;43888;-74
2023/06/19 11:00:55;;;;;;;2.63;2.53;;;23.40;67.90;;;;;;5067053;28;43962;-74
2023/06/19 11:03:23;;;;;;;3.07;2.87;;;23.40;67.90;;;;;;5065290;28;44248;-74
2023/06/19 11:05:51;;;;;;;2.50;2.40;;;23.50;67.70;;;;;;5067426;28;43410;-76
2023/06/19 11:08:20;;;;;;;2.50;2.40;;;23.60;67.30;;;;;;5065269;28;43450;-76
2023/06/19 11:10:48;;;;;;;2.43;2.33;;;23.70;66.90;;;;;;5065518;28;45462;-74
2023/06/19 11:13:18;;;;;;;3.07;2.87;;;23.80;66.80;;;;;;5066942;28;43376;-76
2023/06/19 11:15:46;;;;;;;2.87;2.53;;;23.70;66.60;;;;;;5067222;28;43300;-76
2023/06/19 11:18:16;;;;;;;2.53;2.43;;;23.70;66.50;;;;;;5067716;28;43450;-76
2023/06/19 11:20:45;;;;;;;2.70;2.57;;;23.70;67.10;;;;;;5067124;28;43645;-76
2023/06/19 11:23:13;;;;;;;2.20;2.10;;;23.60;67.20;;;;;;5067045;28;44084;-76
2023/06/19 11:25:42;;;;;;;2.53;2.43;;;23.60;67.00;;;;;;5066069;28;43446;-76
2023/06/19 11:28:14;;;;;;;2.60;2.50;;;23.60;66.90;;;;;;5067184;28;43413;-76
2023/06/19 11:30:44;;;;;;;2.70;2.53;;;23.50;67.50;;;;;;5066648;28;45196;-76
2023/06/19 11:33:21;;;;;;;2.50;2.40;;;23.50;67.70;;;;;;5065543;28;44520;-76
2023/06/19 11:35:50;;;;;;;2.93;2.60;;;23.50;67.50;;;;;;5064555;28;43486;-75
2023/06/19 11:38:20;;;;;;;2.37;2.27;;;23.50;67.40;;;;;;5067188;28;43351;-72
2023/06/19 11:40:48;;;;;;;2.67;2.50;;;23.40;67.70;;;;;;5064525;28;45505;-73
2023/06/19 11:43:25;;;;;;;2.50;2.40;;;23.40;67.90;;;;;;5065090;28;43429;-76
2023/06/19 11:46:00;;;;;;;2.80;2.60;;;23.50;67.70;;;;;;5064923;28;43438;-77
2023/06/19 11:48:28;;;;;;;2.43;2.33;;;23.60;67.30;;;;;;5065651;28;43550;-75
2023/06/19 11:50:56;;;;;;;2.50;2.40;;;23.70;67.00;;;;;;5058235;28;45338;-76
2023/06/19 11:53:25;;;;;;;2.70;2.50;;;23.70;66.90;;;;;;5061661;28;43459;-75
2023/06/19 11:55:53;;;;;;;2.13;2.10;;;23.70;66.80;;;;;;5059877;28;43793;-76
2023/06/19 11:58:21;;;;;;;2.80;2.60;;;23.70;67.00;;;;;;5060695;28;43435;-75
2023/06/19 12:00:49;;;;;;;2.43;2.33;;;23.60;67.30;;;;;;5066414;28;43805;-75
2023/06/19 12:03:18;;;;;;;2.30;2.20;;;23.60;67.30;;;;;;5060240;28;43570;-75
2023/06/19 12:05:47;;;;;;;2.37;2.27;;;23.60;67.30;;;;;;5066588;28;43414;-75
2023/06/19 12:08:15;;;;;;;2.50;2.40;;;23.50;67.20;;;;;;5067196;28;43527;-76
2023/06/19 12:10:43;;;;;;;2.70;2.60;;;23.50;67.70;;;;;;5064792;28;43528;-75
2023/06/19 12:13:11;;;;;;;2.80;2.70;;;23.50;67.70;;;;;;5068151;28;44752;-75
2023/06/19 12:15:39;;;;;;;2.40;2.30;;;23.60;67.50;;;;;;5069904;28;43405;-76
2023/06/19 12:18:07;;;;;;;2.70;2.60;;;23.60;67.10;;;;;;5070128;28;43363;-76
2023/06/19 12:20:37;;;;;;;2.73;2.10;;;23.70;66.90;;;;;;5067939;28;45936;-75
2023/06/19 12:23:05;;;;;;;2.30;2.10;;;23.70;66.80;;;;;;5069523;28;43451;-75
2023/06/19 12:25:33;;;;;;;2.50;2.40;;;23.70;66.80;;;;;;5062263;28;43692;-74
2023/06/19 12:28:00;;;;;;;2.40;2.30;;;23.60;66.90;;;;;;5070184;28;43339;-76
2023/06/19 12:30:29;;;;;;;2.03;1.93;;;23.60;67.40;;;;;;5069489;28;43834;-75
2023/06/19 12:32:57;;;;;;;2.10;2.10;;;23.60;67.50;;;;;;5068109;28;44424;-75
2023/06/19 12:35:25;;;;;;;1.90;1.90;;;23.50;67.20;;;;;;5069875;28;44454;-75
2023/06/19 12:37:55;;;;;;;2.50;2.40;;;23.50;67.30;;;;;;5069659;28;43464;-75
2023/06/19 12:40:24;;;;;;;3.00;2.80;;;23.50;67.90;;;;;;5067727;28;46300;-75
2023/06/19 12:42:52;;;;;;;2.50;2.40;;;23.50;67.90;;;;;;5069244;28;43417;-76
2023/06/19 12:45:20;;;;;;;2.10;2.00;;;23.50;67.70;;;;;;5067881;28;43507;-75
2023/06/19 12:47:48;;;;;;;2.10;2.00;;;23.40;67.60;;;;;;5067679;28;43616;-75
2023/06/19 12:50:16;;;;;;;2.00;2.00;;;23.40;68.00;;;;;;5067620;28;45667;-75
2023/06/19 12:52:44;;;;;;;1.93;1.93;;;23.40;68.10;;;;;;5068301;28;44455;-76
2023/06/19 12:55:14;;;;;;;2.30;2.20;;;23.50;67.90;;;;;;5069564;28;43855;-75